sensor_id;sensor_type;location;lat;lon;timestamp;temperature;humidity
35541;DHT22;21650;48.840;9.162;2023-08-06T00:02:19;16.50;99.90
35541;DHT22;21650;48.840;9.162;2023-08-06T00:04:45;16.50;99.90
35541;DHT22;21650;48.840;9.162;2023-08-06T00:07:10;16.50;99.90
35541;DHT22;21650;48.840;9.162;2023-08-06T00:09:36;16.50;99.90
35541;DHT22;21650;48.840;9.162;2023-08-06T00:12:01;16.40;99.90
35541;DHT22;21650;48.840;9.162;2023-08-06T00:14:27;16.50;99.90
35541;DHT22;21650;48.840;9.162;2023-08-06T00:16:52;16.50;99.90
35541;DHT22;21650;48.840;9.162;2023-08-06T00:19:18;16.50;99.90
35541;DHT22;21650;48.840;9.162;2023-08-06T00:21:43;16.50;99.90
35541;DHT22;21650;48.840;9.162;2023-08-06T00:24:09;16.30;99.90
35541;DHT22;21650;48.840;9.162;2023-08-06T00:26:34;16.30;99.90
35541;DHT22;21650;48.840;9.162;2023-08-06T00:29:00;16.20;99.90
35541;DHT22;21650;48.840;9.162;2023-08-06T00:31:25;16.20;99.90
35541;DHT22;21650;48.840;9.162;2023-08-06T00:33:51;16.10;99.90
35541;DHT22;21650;48.840;9.162;2023-08-06T00:36:16;16.00;99.90
35541;DHT22;21650;48.840;9.162;2023-08-06T00:38:42;16.00;99.90
35541;DHT22;21650;48.840;9.162;2023-08-06T00:41:07;15.90;99.90
35541;DHT22;21650;48.840;9.162;2023-08-06T00:43:33;15.90;99.90
35541;DHT22;21650;48.840;9.162;2023-08-06T00:45:59;15.80;99.90
35541;DHT22;21650;48.840;9.162;2023-08-06T00:48:25;15.80;99.90
35541;DHT22;21650;48.840;9.162;2023-08-06T00:50:50;15.80;99.90
35541;DHT22;21650;48.840;9.162;2023-08-06T00:53:16;15.70;99.90
35541;DHT22;21650;48.840;9.162;2023-08-06T00:55:44;15.80;99.90
35541;DHT22;21650;48.840;9.162;2023-08-06T00:58:10;15.70;99.90
35541;DHT22;21650;48.840;9.162;2023-08-06T01:00:35;15.60;99.90
35541;DHT22;21650;48.840;9.162;2023-08-06T01:03:01;15.50;99.90
35541;DHT22;21650;48.840;9.162;2023-08-06T01:05:27;15.50;99.90
35541;DHT22;21650;48.840;9.162;2023-08-06T01:08:08;15.50;99.90
35541;DHT22;21650;48.840;9.162;2023-08-06T01:11:19;15.40;99.90
35541;DHT22;21650;48.840;9.162;2023-08-06T01:13:49;15.40;99.90
35541;DHT22;21650;48.840;9.162;2023-08-06T01:16:18;15.40;99.90
35541;DHT22;21650;48.840;9.162;2023-08-06T01:18:44;15.40;99.90
35541;DHT22;21650;48.840;9.162;2023-08-06T01:21:14;15.10;99.90
35541;DHT22;21650;48.840;9.162;2023-08-06T01:23:40;15.20;99.90
35541;DHT22;21650;48.840;9.162;2023-08-06T01:26:27;15.30;99.90
35541;DHT22;21650;48.840;9.162;2023-08-06T01:31:59;15.30;99.90
35541;DHT22;21650;48.840;9.162;2023-08-06T01:34:29;15.40;99.90
35541;DHT22;21650;48.840;9.162;2023-08-06T01:36:56;15.30;99.90
35541;DHT22;21650;48.840;9.162;2023-08-06T01:39:22;15.30;99.90
35541;DHT22;21650;48.840;9.162;2023-08-06T01:41:50;15.40;99.90
35541;DHT22;21650;48.840;9.162;2023-08-06T01:44:16;15.40;99.90
35541;DHT22;21650;48.840;9.162;2023-08-06T01:46:41;15.30;99.90
35541;DHT22;21650;48.840;9.162;2023-08-06T01:49:07;15.40;99.90
35541;DHT22;21650;48.840;9.162;2023-08-06T01:51:33;15.30;99.90
35541;DHT22;21650;48.840;9.162;2023-08-06T01:53:58;15.20;99.90
35541;DHT22;21650;48.840;9.162;2023-08-06T01:56:24;15.10;99.90
35541;DHT22;21650;48.840;9.162;2023-08-06T01:58:49;15.10;99.90
35541;DHT22;21650;48.840;9.162;2023-08-06T02:01:15;15.10;99.90
35541;DHT22;21650;48.840;9.162;2023-08-06T02:03:40;15.00;99.90
35541;DHT22;21650;48.840;9.162;2023-08-06T02:06:06;15.00;99.90
35541;DHT22;21650;48.840;9.162;2023-08-06T02:08:32;14.90;99.90
35541;DHT22;21650;48.840;9.162;2023-08-06T02:10:57;15.00;99.90
35541;DHT22;21650;48.840;9.162;2023-08-06T02:13:23;15.00;99.90
35541;DHT22;21650;48.840;9.162;2023-08-06T02:15:49;14.90;99.90
35541;DHT22;21650;48.840;9.162;2023-08-06T02:18:15;14.80;99.90
35541;DHT22;21650;48.840;9.162;2023-08-06T02:20:42;14.80;99.90
35541;DHT22;21650;48.840;9.162;2023-08-06T02:23:08;14.70;99.90
35541;DHT22;21650;48.840;9.162;2023-08-06T02:25:34;14.70;99.90
35541;DHT22;21650;48.840;9.162;2023-08-06T02:27:59;14.70;99.90
35541;DHT22;21650;48.840;9.162;2023-08-06T02:30:25;14.60;99.90
35541;DHT22;21650;48.840;9.162;2023-08-06T02:32:51;14.70;99.90
35541;DHT22;21650;48.840;9.162;2023-08-06T02:35:16;14.60;99.90
35541;DHT22;21650;48.840;9.162;2023-08-06T02:37:42;14.60;99.90
35541;DHT22;21650;48.840;9.162;2023-08-06T02:40:08;14.60;99.90
35541;DHT22;21650;48.840;9.162;2023-08-06T02:42:33;14.60;99.90
35541;DHT22;21650;48.840;9.162;2023-08-06T02:44:59;14.60;99.90
35541;DHT22;21650;48.840;9.162;2023-08-06T02:47:24;14.60;99.90
35541;DHT22;21650;48.840;9.162;2023-08-06T02:49:50;14.60;99.90
35541;DHT22;21650;48.840;9.162;2023-08-06T02:52:15;14.50;99.90
35541;DHT22;21650;48.840;9.162;2023-08-06T02:54:41;14.50;99.90
35541;DHT22;21650;48.840;9.162;2023-08-06T02:57:07;14.50;99.90
35541;DHT22;21650;48.840;9.162;2023-08-06T02:59:33;14.50;99.90
35541;DHT22;21650;48.840;9.162;2023-08-06T03:01:58;14.30;99.90
35541;DHT22;21650;48.840;9.162;2023-08-06T03:04:24;14.50;99.90
35541;DHT22;21650;48.840;9.162;2023-08-06T03:06:50;14.50;99.90
35541;DHT22;21650;48.840;9.162;2023-08-06T03:09:19;14.40;99.90
35541;DHT22;21650;48.840;9.162;2023-08-06T03:11:44;14.40;99.90
35541;DHT22;21650;48.840;9.162;2023-08-06T03:14:10;14.50;99.90
35541;DHT22;21650;48.840;9.162;2023-08-06T03:16:35;14.50;99.90
35541;DHT22;21650;48.840;9.162;2023-08-06T03:19:01;14.40;99.90
35541;DHT22;21650;48.840;9.162;2023-08-06T03:21:27;14.40;99.90
35541;DHT22;21650;48.840;9.162;2023-08-06T03:23:52;14.50;99.90
35541;DHT22;21650;48.840;9.162;2023-08-06T03:26:18;14.50;99.90
35541;DHT22;21650;48.840;9.162;2023-08-06T03:28:44;14.50;99.90
35541;DHT22;21650;48.840;9.162;2023-08-06T03:31:09;14.50;99.90
35541;DHT22;21650;48.840;9.162;2023-08-06T03:33:35;14.40;99.90
35541;DHT22;21650;48.840;9.162;2023-08-06T03:36:01;14.50;99.90
35541;DHT22;21650;48.840;9.162;2023-08-06T03:38:26;14.60;99.90
35541;DHT22;21650;48.840;9.162;2023-08-06T03:40:53;14.60;99.90
35541;DHT22;21650;48.840;9.162;2023-08-06T03:43:18;14.70;99.90
35541;DHT22;21650;48.840;9.162;2023-08-06T03:45:44;14.70;99.90
35541;DHT22;21650;48.840;9.162;2023-08-06T03:48:09;14.70;99.90
35541;DHT22;21650;48.840;9.162;2023-08-06T03:50:35;14.70;99.90
35541;DHT22;21650;48.840;9.162;2023-08-06T03:53:01;14.80;99.90
35541;DHT22;21650;48.840;9.162;2023-08-06T03:55:27;14.80;99.90
35541;DHT22;21650;48.840;9.162;2023-08-06T03:57:52;14.70;99.90
35541;DHT22;21650;48.840;9.162;2023-08-06T04:00:18;14.80;99.90
35541;DHT22;21650;48.840;9.162;2023-08-06T04:02:44;14.70;99.90
35541;DHT22;21650;48.840;9.162;2023-08-06T04:05:09;14.80;99.90
35541;DHT22;21650;48.840;9.162;2023-08-06T04:07:35;14.70;99.90
35541;DHT22;21650;48.840;9.162;2023-08-06T04:10:03;14.60;99.90
35541;DHT22;21650;48.840;9.162;2023-08-06T04:12:29;14.70;99.90
35541;DHT22;21650;48.840;9.162;2023-08-06T04:14:57;14.70;99.90
35541;DHT22;21650;48.840;9.162;2023-08-06T04:17:22;14.60;99.90
35541;DHT22;21650;48.840;9.162;2023-08-06T04:19:53;14.70;99.90
35541;DHT22;21650;48.840;9.162;2023-08-06T04:22:21;14.70;99.90
35541;DHT22;21650;48.840;9.162;2023-08-06T04:24:46;14.70;99.90
35541;DHT22;21650;48.840;9.162;2023-08-06T04:27:13;14.80;99.90
35541;DHT22;21650;48.840;9.162;2023-08-06T04:29:39;14.80;99.90
35541;DHT22;21650;48.840;9.162;2023-08-06T04:32:07;14.80;99.90
35541;DHT22;21650;48.840;9.162;2023-08-06T04:34:33;14.60;99.90
35541;DHT22;21650;48.840;9.162;2023-08-06T04:36:59;14.50;99.90
35541;DHT22;21650;48.840;9.162;2023-08-06T04:39:25;14.40;99.90
35541;DHT22;21650;48.840;9.162;2023-08-06T04:41:51;14.40;99.90
35541;DHT22;21650;48.840;9.162;2023-08-06T04:44:16;14.60;99.90
35541;DHT22;21650;48.840;9.162;2023-08-06T04:46:42;14.70;99.90
35541;DHT22;21650;48.840;9.162;2023-08-06T04:49:07;14.70;99.90
35541;DHT22;21650;48.840;9.162;2023-08-06T04:51:33;14.50;99.90
35541;DHT22;21650;48.840;9.162;2023-08-06T04:53:58;14.30;99.90
35541;DHT22;21650;48.840;9.162;2023-08-06T04:56:24;14.30;99.90
35541;DHT22;21650;48.840;9.162;2023-08-06T04:58:50;14.30;99.90
35541;DHT22;21650;48.840;9.162;2023-08-06T05:01:16;14.40;99.90
35541;DHT22;21650;48.840;9.162;2023-08-06T05:03:41;14.50;99.90
35541;DHT22;21650;48.840;9.162;2023-08-06T05:06:07;14.60;99.90
35541;DHT22;21650;48.840;9.162;2023-08-06T05:08:33;14.60;99.90
35541;DHT22;21650;48.840;9.162;2023-08-06T05:10:58;14.70;99.90
35541;DHT22;21650;48.840;9.162;2023-08-06T05:13:24;14.70;99.90
35541;DHT22;21650;48.840;9.162;2023-08-06T05:15:50;14.70;99.90
35541;DHT22;21650;48.840;9.162;2023-08-06T05:18:16;14.80;99.90
35541;DHT22;21650;48.840;9.162;2023-08-06T05:20:42;14.90;99.90
35541;DHT22;21650;48.840;9.162;2023-08-06T05:23:08;15.00;99.90
35541;DHT22;21650;48.840;9.162;2023-08-06T05:25:35;15.00;99.90
35541;DHT22;21650;48.840;9.162;2023-08-06T05:28:01;14.90;99.90
35541;DHT22;21650;48.840;9.162;2023-08-06T05:30:28;15.00;99.90
35541;DHT22;21650;48.840;9.162;2023-08-06T05:32:53;15.20;99.90
35541;DHT22;21650;48.840;9.162;2023-08-06T05:35:19;15.40;99.90
35541;DHT22;21650;48.840;9.162;2023-08-06T05:37:44;15.50;99.90
35541;DHT22;21650;48.840;9.162;2023-08-06T05:40:10;15.50;99.90
35541;DHT22;21650;48.840;9.162;2023-08-06T05:42:35;15.60;99.90
35541;DHT22;21650;48.840;9.162;2023-08-06T05:45:01;15.60;99.90
35541;DHT22;21650;48.840;9.162;2023-08-06T05:47:26;15.60;99.90
35541;DHT22;21650;48.840;9.162;2023-08-06T05:49:52;15.70;99.90
35541;DHT22;21650;48.840;9.162;2023-08-06T05:52:18;15.60;99.90
35541;DHT22;21650;48.840;9.162;2023-08-06T05:54:43;15.70;99.90
35541;DHT22;21650;48.840;9.162;2023-08-06T05:57:09;15.60;99.90
35541;DHT22;21650;48.840;9.162;2023-08-06T05:59:34;15.60;99.90
35541;DHT22;21650;48.840;9.162;2023-08-06T06:02:00;15.60;99.90
35541;DHT22;21650;48.840;9.162;2023-08-06T06:04:25;15.60;99.90
35541;DHT22;21650;48.840;9.162;2023-08-06T06:06:51;15.50;99.90
35541;DHT22;21650;48.840;9.162;2023-08-06T06:09:16;15.40;99.90
35541;DHT22;21650;48.840;9.162;2023-08-06T06:11:42;15.40;99.90
35541;DHT22;21650;48.840;9.162;2023-08-06T06:14:07;15.40;99.90
35541;DHT22;21650;48.840;9.162;2023-08-06T06:16:34;15.30;99.90
35541;DHT22;21650;48.840;9.162;2023-08-06T06:18:59;15.30;99.90
35541;DHT22;21650;48.840;9.162;2023-08-06T06:21:25;15.30;99.90
35541;DHT22;21650;48.840;9.162;2023-08-06T06:23:50;15.20;99.90
35541;DHT22;21650;48.840;9.162;2023-08-06T06:26:19;15.20;99.90
35541;DHT22;21650;48.840;9.162;2023-08-06T06:28:44;15.10;99.90
35541;DHT22;21650;48.840;9.162;2023-08-06T06:31:10;14.90;99.90
35541;DHT22;21650;48.840;9.162;2023-08-06T06:33:36;15.00;99.90
35541;DHT22;21650;48.840;9.162;2023-08-06T06:36:02;15.00;99.90
35541;DHT22;21650;48.840;9.162;2023-08-06T06:38:33;15.10;99.90
35541;DHT22;21650;48.840;9.162;2023-08-06T06:40:58;15.10;99.90
35541;DHT22;21650;48.840;9.162;2023-08-06T06:43:25;15.10;99.90
35541;DHT22;21650;48.840;9.162;2023-08-06T06:45:56;15.10;99.90
35541;DHT22;21650;48.840;9.162;2023-08-06T06:48:23;15.10;99.90
35541;DHT22;21650;48.840;9.162;2023-08-06T06:50:49;15.20;99.90
35541;DHT22;21650;48.840;9.162;2023-08-06T06:53:14;15.20;99.90
35541;DHT22;21650;48.840;9.162;2023-08-06T06:55:40;15.20;99.90
35541;DHT22;21650;48.840;9.162;2023-08-06T06:58:05;15.10;99.90
35541;DHT22;21650;48.840;9.162;2023-08-06T07:00:31;15.20;99.90
35541;DHT22;21650;48.840;9.162;2023-08-06T07:02:56;15.20;99.90
35541;DHT22;21650;48.840;9.162;2023-08-06T07:05:22;15.20;99.90
35541;DHT22;21650;48.840;9.162;2023-08-06T07:07:47;15.30;99.90
35541;DHT22;21650;48.840;9.162;2023-08-06T07:10:13;15.20;99.90
35541;DHT22;21650;48.840;9.162;2023-08-06T07:12:39;15.20;99.90
35541;DHT22;21650;48.840;9.162;2023-08-06T07:15:06;15.30;99.90
35541;DHT22;21650;48.840;9.162;2023-08-06T07:17:31;15.20;99.90
35541;DHT22;21650;48.840;9.162;2023-08-06T07:19:57;15.20;99.90
35541;DHT22;21650;48.840;9.162;2023-08-06T07:22:22;15.30;99.90
35541;DHT22;21650;48.840;9.162;2023-08-06T07:24:48;15.30;99.90
35541;DHT22;21650;48.840;9.162;2023-08-06T07:27:13;15.20;99.90
35541;DHT22;21650;48.840;9.162;2023-08-06T07:29:39;15.30;99.90
35541;DHT22;21650;48.840;9.162;2023-08-06T07:32:06;15.20;99.90
35541;DHT22;21650;48.840;9.162;2023-08-06T07:34:32;15.10;99.90
35541;DHT22;21650;48.840;9.162;2023-08-06T07:36:58;15.10;99.90
35541;DHT22;21650;48.840;9.162;2023-08-06T07:39:24;15.20;99.90
35541;DHT22;21650;48.840;9.162;2023-08-06T07:41:49;15.20;99.90
35541;DHT22;21650;48.840;9.162;2023-08-06T07:44:15;15.20;99.90
35541;DHT22;21650;48.840;9.162;2023-08-06T07:46:40;15.30;99.90
35541;DHT22;21650;48.840;9.162;2023-08-06T07:49:06;15.20;99.90
35541;DHT22;21650;48.840;9.162;2023-08-06T07:51:32;15.40;99.90
35541;DHT22;21650;48.840;9.162;2023-08-06T07:53:57;15.50;99.90
35541;DHT22;21650;48.840;9.162;2023-08-06T07:56:23;15.50;99.90
35541;DHT22;21650;48.840;9.162;2023-08-06T07:58:48;15.40;99.90
35541;DHT22;21650;48.840;9.162;2023-08-06T08:01:14;15.30;99.90
35541;DHT22;21650;48.840;9.162;2023-08-06T08:03:39;15.40;99.90
35541;DHT22;21650;48.840;9.162;2023-08-06T08:06:05;15.50;99.90
35541;DHT22;21650;48.840;9.162;2023-08-06T08:08:30;15.70;99.90
35541;DHT22;21650;48.840;9.162;2023-08-06T08:10:57;15.90;99.90
35541;DHT22;21650;48.840;9.162;2023-08-06T08:13:24;15.90;99.90
35541;DHT22;21650;48.840;9.162;2023-08-06T08:15:50;16.00;99.90
35541;DHT22;21650;48.840;9.162;2023-08-06T08:18:15;16.20;99.90
35541;DHT22;21650;48.840;9.162;2023-08-06T08:20:41;16.40;99.90
35541;DHT22;21650;48.840;9.162;2023-08-06T08:23:06;16.50;99.90
35541;DHT22;21650;48.840;9.162;2023-08-06T08:25:32;16.60;99.90
35541;DHT22;21650;48.840;9.162;2023-08-06T08:27:59;16.70;99.90
35541;DHT22;21650;48.840;9.162;2023-08-06T08:30:24;16.80;99.90
35541;DHT22;21650;48.840;9.162;2023-08-06T08:32:50;17.00;99.90
35541;DHT22;21650;48.840;9.162;2023-08-06T08:35:16;16.70;99.90
35541;DHT22;21650;48.840;9.162;2023-08-06T08:37:42;16.70;99.90
35541;DHT22;21650;48.840;9.162;2023-08-06T08:40:09;16.60;99.90
35541;DHT22;21650;48.840;9.162;2023-08-06T08:42:35;16.50;99.90
35541;DHT22;21650;48.840;9.162;2023-08-06T08:45:02;16.80;99.90
35541;DHT22;21650;48.840;9.162;2023-08-06T08:47:29;17.00;99.90
35541;DHT22;21650;48.840;9.162;2023-08-06T08:49:57;17.00;99.90
35541;DHT22;21650;48.840;9.162;2023-08-06T08:52:23;17.10;99.90
35541;DHT22;21650;48.840;9.162;2023-08-06T08:54:50;17.20;99.90
35541;DHT22;21650;48.840;9.162;2023-08-06T08:57:18;17.10;99.90
35541;DHT22;21650;48.840;9.162;2023-08-06T08:59:44;16.70;99.90
35541;DHT22;21650;48.840;9.162;2023-08-06T09:02:11;16.70;99.90
35541;DHT22;21650;48.840;9.162;2023-08-06T09:04:38;16.60;99.90
35541;DHT22;21650;48.840;9.162;2023-08-06T09:07:05;16.50;99.90
35541;DHT22;21650;48.840;9.162;2023-08-06T09:09:33;16.40;99.90
35541;DHT22;21650;48.840;9.162;2023-08-06T09:12:10;16.40;99.90
35541;DHT22;21650;48.840;9.162;2023-08-06T09:14:36;16.40;99.90
35541;DHT22;21650;48.840;9.162;2023-08-06T09:17:03;16.40;99.90
35541;DHT22;21650;48.840;9.162;2023-08-06T09:19:29;16.40;99.90
35541;DHT22;21650;48.840;9.162;2023-08-06T09:21:56;16.50;99.90
35541;DHT22;21650;48.840;9.162;2023-08-06T09:24:22;16.50;99.90
35541;DHT22;21650;48.840;9.162;2023-08-06T09:26:48;16.50;99.90
35541;DHT22;21650;48.840;9.162;2023-08-06T09:29:13;16.50;99.90
35541;DHT22;21650;48.840;9.162;2023-08-06T09:34:15;16.30;99.90
35541;DHT22;21650;48.840;9.162;2023-08-06T09:36:49;16.30;99.90
35541;DHT22;21650;48.840;9.162;2023-08-06T09:39:21;16.20;99.90
35541;DHT22;21650;48.840;9.162;2023-08-06T09:41:47;16.10;99.90
35541;DHT22;21650;48.840;9.162;2023-08-06T09:44:21;16.10;99.90
35541;DHT22;21650;48.840;9.162;2023-08-06T09:49:15;15.90;99.90
35541;DHT22;21650;48.840;9.162;2023-08-06T09:51:41;16.10;99.90
35541;DHT22;21650;48.840;9.162;2023-08-06T09:54:08;16.00;99.90
35541;DHT22;21650;48.840;9.162;2023-08-06T09:56:37;16.10;99.90
35541;DHT22;21650;48.840;9.162;2023-08-06T09:59:06;16.00;99.90
35541;DHT22;21650;48.840;9.162;2023-08-06T10:01:35;16.00;99.90
35541;DHT22;21650;48.840;9.162;2023-08-06T10:04:06;16.00;99.90
35541;DHT22;21650;48.840;9.162;2023-08-06T10:06:36;16.00;99.90
35541;DHT22;21650;48.840;9.162;2023-08-06T10:09:02;16.00;99.90
35541;DHT22;21650;48.840;9.162;2023-08-06T10:11:29;15.90;99.90
35541;DHT22;21650;48.840;9.162;2023-08-06T10:14:22;15.80;99.90
35541;DHT22;21650;48.840;9.162;2023-08-06T10:16:50;16.20;99.90
35541;DHT22;21650;48.840;9.162;2023-08-06T10:19:16;16.50;99.90
35541;DHT22;21650;48.840;9.162;2023-08-06T10:22:12;16.70;99.90
35541;DHT22;21650;48.840;9.162;2023-08-06T10:24:52;16.80;99.90
35541;DHT22;21650;48.840;9.162;2023-08-06T10:27:40;16.60;99.90
35541;DHT22;21650;48.840;9.162;2023-08-06T10:30:27;16.60;99.90
35541;DHT22;21650;48.840;9.162;2023-08-06T10:32:55;17.00;99.90
35541;DHT22;21650;48.840;9.162;2023-08-06T10:38:10;17.00;99.90
35541;DHT22;21650;48.840;9.162;2023-08-06T10:40:40;16.90;99.90
35541;DHT22;21650;48.840;9.162;2023-08-06T10:43:06;17.00;99.90
35541;DHT22;21650;48.840;9.162;2023-08-06T10:45:37;17.00;99.90
35541;DHT22;21650;48.840;9.162;2023-08-06T10:48:03;16.80;99.90
35541;DHT22;21650;48.840;9.162;2023-08-06T10:50:30;16.90;99.90
35541;DHT22;21650;48.840;9.162;2023-08-06T10:52:57;16.80;99.90
35541;DHT22;21650;48.840;9.162;2023-08-06T10:55:28;16.90;99.90
35541;DHT22;21650;48.840;9.162;2023-08-06T10:57:55;16.90;99.90
35541;DHT22;21650;48.840;9.162;2023-08-06T11:00:21;16.80;99.90
35541;DHT22;21650;48.840;9.162;2023-08-06T11:02:49;16.50;99.90
35541;DHT22;21650;48.840;9.162;2023-08-06T11:05:15;16.20;99.90
35541;DHT22;21650;48.840;9.162;2023-08-06T11:07:41;16.10;99.90
35541;DHT22;21650;48.840;9.162;2023-08-06T11:10:11;15.90;99.90
35541;DHT22;21650;48.840;9.162;2023-08-06T11:12:38;15.70;99.90
35541;DHT22;21650;48.840;9.162;2023-08-06T11:15:04;15.80;99.90
35541;DHT22;21650;48.840;9.162;2023-08-06T11:17:32;15.70;99.90
35541;DHT22;21650;48.840;9.162;2023-08-06T11:20:03;15.90;99.90
35541;DHT22;21650;48.840;9.162;2023-08-06T11:22:28;16.00;99.90
35541;DHT22;21650;48.840;9.162;2023-08-06T11:24:55;15.80;99.90
35541;DHT22;21650;48.840;9.162;2023-08-06T11:27:21;15.80;99.90
35541;DHT22;21650;48.840;9.162;2023-08-06T11:29:46;15.80;99.90
35541;DHT22;21650;48.840;9.162;2023-08-06T11:32:12;15.80;99.90
35541;DHT22;21650;48.840;9.162;2023-08-06T11:34:39;15.70;99.90
35541;DHT22;21650;48.840;9.162;2023-08-06T11:37:06;15.70;99.90
35541;DHT22;21650;48.840;9.162;2023-08-06T11:39:35;15.80;99.90
35541;DHT22;21650;48.840;9.162;2023-08-06T11:42:07;15.80;99.90
35541;DHT22;21650;48.840;9.162;2023-08-06T11:44:35;15.70;99.90
35541;DHT22;21650;48.840;9.162;2023-08-06T11:47:03;15.70;99.90
35541;DHT22;21650;48.840;9.162;2023-08-06T11:49:47;15.60;99.90
35541;DHT22;21650;48.840;9.162;2023-08-06T11:52:24;15.40;99.90
35541;DHT22;21650;48.840;9.162;2023-08-06T11:55:04;15.20;99.90
35541;DHT22;21650;48.840;9.162;2023-08-06T11:57:37;15.30;99.90
35541;DHT22;21650;48.840;9.162;2023-08-06T12:00:12;15.30;99.90
35541;DHT22;21650;48.840;9.162;2023-08-06T12:02:42;15.20;99.90
35541;DHT22;21650;48.840;9.162;2023-08-06T12:05:12;15.20;99.90
35541;DHT22;21650;48.840;9.162;2023-08-06T12:07:40;15.10;99.90
35541;DHT22;21650;48.840;9.162;2023-08-06T12:10:07;15.00;99.90
35541;DHT22;21650;48.840;9.162;2023-08-06T12:12:34;14.80;99.90
35541;DHT22;21650;48.840;9.162;2023-08-06T12:15:00;14.80;99.90
35541;DHT22;21650;48.840;9.162;2023-08-06T12:17:25;14.70;99.90
35541;DHT22;21650;48.840;9.162;2023-08-06T12:19:52;14.70;99.90
35541;DHT22;21650;48.840;9.162;2023-08-06T12:22:18;14.70;99.90
35541;DHT22;21650;48.840;9.162;2023-08-06T12:24:44;14.80;99.90
35541;DHT22;21650;48.840;9.162;2023-08-06T12:27:11;14.70;99.90
35541;DHT22;21650;48.840;9.162;2023-08-06T12:29:41;14.70;99.90
35541;DHT22;21650;48.840;9.162;2023-08-06T12:32:07;14.80;99.90
35541;DHT22;21650;48.840;9.162;2023-08-06T12:34:32;14.90;99.90
35541;DHT22;21650;48.840;9.162;2023-08-06T12:36:58;15.00;99.90
35541;DHT22;21650;48.840;9.162;2023-08-06T12:39:23;15.10;99.90
35541;DHT22;21650;48.840;9.162;2023-08-06T12:41:49;15.10;99.90
35541;DHT22;21650;48.840;9.162;2023-08-06T12:44:14;15.30;99.90
35541;DHT22;21650;48.840;9.162;2023-08-06T12:46:40;15.50;99.90
35541;DHT22;21650;48.840;9.162;2023-08-06T12:49:06;15.80;99.90
35541;DHT22;21650;48.840;9.162;2023-08-06T12:51:32;16.00;99.90
35541;DHT22;21650;48.840;9.162;2023-08-06T12:53:59;16.10;99.90
35541;DHT22;21650;48.840;9.162;2023-08-06T12:56:25;16.10;99.90
35541;DHT22;21650;48.840;9.162;2023-08-06T12:58:50;16.20;99.90
35541;DHT22;21650;48.840;9.162;2023-08-06T13:01:16;16.20;99.90
35541;DHT22;21650;48.840;9.162;2023-08-06T13:03:41;16.20;99.90
35541;DHT22;21650;48.840;9.162;2023-08-06T13:06:07;16.30;99.90
35541;DHT22;21650;48.840;9.162;2023-08-06T13:08:35;16.40;99.90
35541;DHT22;21650;48.840;9.162;2023-08-06T13:11:00;16.50;99.90
35541;DHT22;21650;48.840;9.162;2023-08-06T13:13:26;16.60;99.90
35541;DHT22;21650;48.840;9.162;2023-08-06T13:15:52;16.60;99.90
35541;DHT22;21650;48.840;9.162;2023-08-06T13:18:18;16.70;99.90
35541;DHT22;21650;48.840;9.162;2023-08-06T13:20:43;16.90;99.90
35541;DHT22;21650;48.840;9.162;2023-08-06T13:23:09;17.10;99.90
35541;DHT22;21650;48.840;9.162;2023-08-06T13:25:34;17.00;99.90
35541;DHT22;21650;48.840;9.162;2023-08-06T13:28:05;17.10;99.90
35541;DHT22;21650;48.840;9.162;2023-08-06T13:30:31;17.20;99.90
35541;DHT22;21650;48.840;9.162;2023-08-06T13:32:56;17.40;99.90
35541;DHT22;21650;48.840;9.162;2023-08-06T13:35:22;17.50;99.90
35541;DHT22;21650;48.840;9.162;2023-08-06T13:37:48;17.30;99.90
35541;DHT22;21650;48.840;9.162;2023-08-06T13:40:14;17.20;99.90
35541;DHT22;21650;48.840;9.162;2023-08-06T13:42:40;17.20;99.90
35541;DHT22;21650;48.840;9.162;2023-08-06T13:45:06;17.20;99.90
35541;DHT22;21650;48.840;9.162;2023-08-06T13:47:32;17.20;99.90
35541;DHT22;21650;48.840;9.162;2023-08-06T13:49:57;17.00;99.90
35541;DHT22;21650;48.840;9.162;2023-08-06T13:52:25;16.80;99.90
35541;DHT22;21650;48.840;9.162;2023-08-06T13:54:51;16.80;99.90
35541;DHT22;21650;48.840;9.162;2023-08-06T13:57:17;16.80;99.90
35541;DHT22;21650;48.840;9.162;2023-08-06T13:59:43;16.70;99.90
35541;DHT22;21650;48.840;9.162;2023-08-06T14:02:09;16.80;99.90
35541;DHT22;21650;48.840;9.162;2023-08-06T14:04:35;16.70;99.90
35541;DHT22;21650;48.840;9.162;2023-08-06T14:07:00;16.70;99.90
35541;DHT22;21650;48.840;9.162;2023-08-06T14:09:26;16.50;99.90
35541;DHT22;21650;48.840;9.162;2023-08-06T14:11:51;16.30;99.90
35541;DHT22;21650;48.840;9.162;2023-08-06T14:14:17;16.20;99.90
35541;DHT22;21650;48.840;9.162;2023-08-06T14:16:42;15.90;99.90
35541;DHT22;21650;48.840;9.162;2023-08-06T14:19:08;16.00;99.90
35541;DHT22;21650;48.840;9.162;2023-08-06T14:21:34;15.90;99.90
35541;DHT22;21650;48.840;9.162;2023-08-06T14:23:59;16.00;99.90
35541;DHT22;21650;48.840;9.162;2023-08-06T14:26:25;16.20;99.90
35541;DHT22;21650;48.840;9.162;2023-08-06T14:28:50;16.20;99.90
35541;DHT22;21650;48.840;9.162;2023-08-06T14:31:19;16.30;99.90
35541;DHT22;21650;48.840;9.162;2023-08-06T14:33:45;16.50;99.90
35541;DHT22;21650;48.840;9.162;2023-08-06T14:36:11;16.70;99.90
35541;DHT22;21650;48.840;9.162;2023-08-06T14:38:36;16.80;99.90
35541;DHT22;21650;48.840;9.162;2023-08-06T14:41:02;16.90;99.90
35541;DHT22;21650;48.840;9.162;2023-08-06T14:43:27;16.90;99.90
35541;DHT22;21650;48.840;9.162;2023-08-06T14:45:53;16.80;99.90
35541;DHT22;21650;48.840;9.162;2023-08-06T14:48:19;16.50;99.90
35541;DHT22;21650;48.840;9.162;2023-08-06T14:50:44;16.40;99.90
35541;DHT22;21650;48.840;9.162;2023-08-06T14:53:10;16.40;99.90
35541;DHT22;21650;48.840;9.162;2023-08-06T14:55:37;16.50;99.90
35541;DHT22;21650;48.840;9.162;2023-08-06T14:58:02;16.60;99.90
35541;DHT22;21650;48.840;9.162;2023-08-06T15:00:28;16.70;99.90
35541;DHT22;21650;48.840;9.162;2023-08-06T15:02:54;16.70;99.90
35541;DHT22;21650;48.840;9.162;2023-08-06T15:05:19;16.60;99.90
35541;DHT22;21650;48.840;9.162;2023-08-06T15:07:45;16.50;99.90
35541;DHT22;21650;48.840;9.162;2023-08-06T15:10:10;16.50;99.90
35541;DHT22;21650;48.840;9.162;2023-08-06T15:12:36;16.40;99.90
35541;DHT22;21650;48.840;9.162;2023-08-06T15:15:02;16.10;99.90
35541;DHT22;21650;48.840;9.162;2023-08-06T15:17:27;16.00;99.90
35541;DHT22;21650;48.840;9.162;2023-08-06T15:19:56;16.00;99.90
35541;DHT22;21650;48.840;9.162;2023-08-06T15:22:23;16.20;99.90
35541;DHT22;21650;48.840;9.162;2023-08-06T15:24:48;16.10;99.90
35541;DHT22;21650;48.840;9.162;2023-08-06T15:27:14;16.10;99.90
35541;DHT22;21650;48.840;9.162;2023-08-06T15:29:39;16.20;99.90
35541;DHT22;21650;48.840;9.162;2023-08-06T15:32:05;16.10;99.90
35541;DHT22;21650;48.840;9.162;2023-08-06T15:34:31;16.10;99.90
35541;DHT22;21650;48.840;9.162;2023-08-06T15:36:56;16.10;99.90
35541;DHT22;21650;48.840;9.162;2023-08-06T15:39:22;16.10;99.90